Time;durP1;ratioP1;P1;durP2;ratioP2;P2;SDS_P1;SDS_P2;PMS_P1;PMS_P2;Temp;Humidity;BMP_temperature;BMP_pressure;BME280_temperature;BME280_humidity;BME280_pressure;Samples;Min_cycle;Max_cycle;Signal;HPM_P1;HPM_P2
2021/08/18 00:01:31;;;;;;;11.97;9.27;;;;;;;14.95;78.35;101081.19;5916383;29;20257;-52
2021/08/18 00:04:54;;;;;;;20.03;10.77;;;;;;;14.93;78.46;101079.50;5917060;29;20234;-48
2021/08/18 00:08:15;;;;;;;12.03;8.83;;;;;;;14.99;78.44;101073.28;5912330;29;20649;-53
2021/08/18 00:11:37;;;;;;;12.53;9.47;;;;;;;14.94;78.67;101066.34;5917333;29;20261;-53
2021/08/18 00:14:58;;;;;;;15.20;9.77;;;;;;;15.01;78.30;101072.31;5916696;29;20265;-49
2021/08/18 00:18:19;;;;;;;10.83;8.63;;;;;;;14.95;79.04;101072.47;5915628;29;20241;-51
2021/08/18 00:21:41;;;;;;;11.83;9.13;;;;;;;15.02;78.67;101073.19;5917470;29;20245;-50
2021/08/18 00:25:03;;;;;;;12.63;10.10;;;;;;;14.82;79.41;101077.13;5917418;29;20343;-52
2021/08/18 00:28:25;;;;;;;10.77;9.67;;;;;;;14.60;81.08;101076.75;5916003;29;20277;-52
2021/08/18 00:31:46;;;;;;;13.23;10.20;;;;;;;14.68;80.54;101079.19;5917914;29;20238;-52
2021/08/18 00:35:08;;;;;;;13.57;10.07;;;;;;;14.97;79.71;101070.69;5916400;29;20250;-55
2021/08/18 00:38:29;;;;;;;11.70;10.30;;;;;;;14.76;80.20;101074.66;5916750;29;20238;-47
2021/08/18 00:41:51;;;;;;;11.47;10.03;;;;;;;14.86;79.79;101072.69;5916988;29;20242;-52
2021/08/18 00:45:15;;;;;;;18.70;12.50;;;;;;;14.52;81.77;101076.00;5907824;29;20242;-52
2021/08/18 00:48:37;;;;;;;13.60;11.23;;;;;;;14.47;82.39;101077.88;5913973;29;20629;-51
2021/08/18 00:52:00;;;;;;;15.17;10.70;;;;;;;14.50;82.34;101075.16;5916792;29;20238;-49
2021/08/18 00:55:22;;;;;;;15.77;11.20;;;;;;;14.54;81.43;101076.84;5917269;29;20249;-51
2021/08/18 00:58:43;;;;;;;12.67;10.13;;;;;;;14.57;81.96;101079.41;5912985;29;20328;-54
2021/08/18 01:02:06;;;;;;;12.30;9.93;;;;;;;14.55;82.38;101068.06;5914670;29;20242;-49
2021/08/18 01:05:29;;;;;;;13.63;9.43;;;;;;;14.65;81.47;101069.63;5917084;29;20513;-53
2021/08/18 01:08:50;;;;;;;11.50;10.30;;;;;;;14.60;81.62;101061.03;5915453;29;20246;-54
2021/08/18 01:12:12;;;;;;;13.20;9.57;;;;;;;14.86;80.37;101063.03;5915901;29;20769;-52
2021/08/18 01:15:35;;;;;;;10.97;9.40;;;;;;;14.89;80.20;101062.13;5916491;29;20241;-53
2021/08/18 01:18:58;;;;;;;10.07;9.07;;;;;;;14.67;80.85;101066.97;5912157;29;20238;-49
2021/08/18 01:22:19;;;;;;;13.03;9.73;;;;;;;14.50;81.70;101059.44;5912372;29;20242;-55
2021/08/18 01:25:41;;;;;;;11.63;10.17;;;;;;;14.63;81.26;101057.47;5906530;29;20241;-52
2021/08/18 01:29:04;;;;;;;11.30;7.43;;;;;;;14.87;80.03;101056.91;5915780;29;20249;-55
2021/08/18 01:32:25;;;;;;;10.37;8.67;;;;;;;14.71;80.64;101059.03;5916127;29;20620;-52
2021/08/18 01:35:47;;;;;;;12.40;9.53;;;;;;;14.79;80.34;101069.31;5913804;29;20825;-54
2021/08/18 01:39:11;;;;;;;11.23;10.13;;;;;;;14.82;80.14;101063.16;5914704;29;20238;-52
2021/08/18 01:42:32;;;;;;;9.03;8.13;;;;;;;14.88;80.00;101068.25;5915748;29;20245;-52
2021/08/18 01:45:55;;;;;;;15.00;10.37;;;;;;;14.65;80.93;101074.88;5912090;29;20268;-54
2021/08/18 01:49:16;;;;;;;10.33;9.33;;;;;;;14.67;80.66;101059.97;5913741;29;20349;-53
2021/08/18 01:52:37;;;;;;;10.23;8.97;;;;;;;14.60;80.97;101058.41;5925968;29;20328;-50
2021/08/18 01:56:00;;;;;;;10.03;8.83;;;;;;;14.73;80.35;101053.72;5913639;29;20265;-54
2021/08/18 01:59:26;;;;;;;9.57;8.67;;;;;;;14.54;81.29;101055.88;5913048;29;20307;-51
2021/08/18 02:02:51;;;;;;;11.60;10.03;;;;;;;14.67;80.72;101064.34;5926813;29;20249;-54
2021/08/18 02:06:13;;;;;;;11.50;9.30;;;;;;;14.66;80.52;101052.16;5910129;29;20238;-53
2021/08/18 02:09:34;;;;;;;10.77;8.30;;;;;;;14.55;81.24;101047.09;5914952;29;20877;-50
2021/08/18 02:12:56;;;;;;;12.37;9.00;;;;;;;14.58;80.71;101041.84;5915022;29;20241;-50
2021/08/18 02:16:16;;;;;;;10.83;8.73;;;;;;;14.51;80.98;101040.22;5910252;29;20230;-50
2021/08/18 02:19:39;;;;;;;9.83;8.83;;;;;;;14.56;80.88;101030.50;5913472;29;20343;-51
2021/08/18 02:23:01;;;;;;;9.67;8.67;;;;;;;14.49;81.17;101028.91;5913967;29;20261;-51
2021/08/18 02:26:22;;;;;;;11.07;9.03;;;;;;;14.48;81.56;101025.44;5906745;29;20278;-53
2021/08/18 02:29:42;;;;;;;13.33;10.40;;;;;;;14.45;81.93;101035.13;5912511;29;20790;-50
2021/08/18 02:33:04;;;;;;;10.10;9.20;;;;;;;14.38;81.90;101022.16;5914113;29;20911;-53
2021/08/18 02:36:26;;;;;;;11.27;9.83;;;;;;;14.35;82.21;101030.06;5910895;29;20280;-52
2021/08/18 02:39:46;;;;;;;9.77;8.83;;;;;;;14.68;80.68;101014.53;5913118;29;20238;-52
2021/08/18 02:43:08;;;;;;;12.40;9.57;;;;;;;14.43;82.01;101023.81;5912979;29;20253;-52
2021/08/18 02:46:29;;;;;;;10.47;9.00;;;;;;;14.22;82.64;101010.25;5914099;29;20242;-55
2021/08/18 02:49:50;;;;;;;11.30;9.23;;;;;;;14.42;82.23;101004.56;5913876;29;20617;-50
2021/08/18 02:53:12;;;;;;;9.77;8.80;;;;;;;14.45;81.46;101001.06;5914408;29;20238;-51
2021/08/18 02:56:33;;;;;;;10.30;9.23;;;;;;;14.31;82.32;101006.59;5911741;29;20739;-54
2021/08/18 02:59:56;;;;;;;9.73;8.70;;;;;;;14.22;82.22;100997.16;5913057;29;20250;-54
2021/08/18 03:03:17;;;;;;;10.60;9.30;;;;;;;14.41;81.38;100988.91;5909697;29;20234;-50
2021/08/18 03:06:37;;;;;;;12.40;9.63;;;;;;;14.44;81.25;101004.56;5915472;29;20282;-52
2021/08/18 03:10:00;;;;;;;10.73;8.33;;;;;;;14.25;82.03;101002.34;5912450;29;20668;-51
2021/08/18 03:13:21;;;;;;;10.47;8.60;;;;;;;14.19;82.44;100994.63;5913131;29;20242;-52
2021/08/18 03:16:42;;;;;;;11.90;8.90;;;;;;;14.10;83.02;100994.81;5915040;29;20237;-54
2021/08/18 03:20:05;;;;;;;13.30;10.83;;;;;;;14.11;82.74;100986.03;5903902;29;20648;-52
2021/08/18 03:23:25;;;;;;;12.57;10.63;;;;;;;14.17;82.90;100985.91;5914461;29;20262;-51
2021/08/18 03:26:47;;;;;;;10.43;9.23;;;;;;;14.07;83.36;100980.00;5912869;29;20617;-54
2021/08/18 03:30:10;;;;;;;12.77;10.33;;;;;;;14.13;83.40;100992.09;5903203;29;20241;-55
2021/08/18 03:33:31;;;;;;;13.10;11.87;;;;;;;14.08;83.33;100986.13;5914499;29;20242;-55
2021/08/18 03:36:52;;;;;;;12.50;11.30;;;;;;;14.17;82.83;100988.53;5907177;29;20245;-52
2021/08/18 03:40:14;;;;;;;14.60;11.93;;;;;;;14.31;82.42;100977.78;5914013;29;20696;-52
2021/08/18 03:43:36;;;;;;;12.53;11.33;;;;;;;14.17;82.90;100975.44;5912455;29;20362;-49
2021/08/18 03:46:58;;;;;;;13.43;10.77;;;;;;;13.95;83.38;100988.97;5912618;29;20265;-52
2021/08/18 03:50:18;;;;;;;12.73;11.40;;;;;;;14.04;83.25;100987.09;5914469;29;20278;-52
2021/08/18 03:53:39;;;;;;;11.90;10.77;;;;;;;14.43;81.58;100981.88;5912044;29;20237;-52
2021/08/18 03:57:00;;;;;;;12.33;10.87;;;;;;;14.44;81.47;100988.84;5905636;29;20297;-50
2021/08/18 04:00:23;;;;;;;16.10;12.37;;;;;;;14.33;81.70;100995.19;5911992;29;20442;-54
2021/08/18 04:03:44;;;;;;;16.47;12.67;;;;;;;14.30;82.09;100989.13;5911668;29;20273;-48
2021/08/18 04:07:06;;;;;;;12.93;11.47;;;;;;;14.27;82.20;100979.59;5914761;29;20238;-53
2021/08/18 04:10:27;;;;;;;14.97;11.97;;;;;;;14.16;82.33;100971.09;5912719;29;20636;-54
2021/08/18 04:13:48;;;;;;;13.40;11.23;;;;;;;14.21;82.39;100974.50;5912301;29;20238;-53
2021/08/18 04:17:10;;;;;;;12.83;10.27;;;;;;;14.10;82.35;100977.34;5911220;29;20253;-50
2021/08/18 04:20:32;;;;;;;12.50;10.93;;;;;;;14.44;82.08;100991.44;5906197;29;20243;-50
2021/08/18 04:23:53;;;;;;;11.87;10.40;;;;;;;14.49;80.77;100990.47;5912287;29;20242;-50
2021/08/18 04:27:13;;;;;;;12.90;11.60;;;;;;;14.40;81.22;100990.66;5908386;29;20238;-52
2021/08/18 04:30:34;;;;;;;11.57;10.47;;;;;;;14.44;80.82;100999.31;5912217;29;20246;-52
2021/08/18 04:33:56;;;;;;;14.17;11.07;;;;;;;14.32;81.26;101000.44;5915593;29;20249;-55
2021/08/18 04:37:17;;;;;;;10.90;9.90;;;;;;;14.38;81.21;100998.56;5910704;29;20250;-52
2021/08/18 04:40:38;;;;;;;12.33;10.20;;;;;;;14.52;80.53;100994.75;5914246;29;20242;-54
2021/08/18 04:43:59;;;;;;;12.00;10.83;;;;;;;14.55;80.62;100994.69;5917932;29;20543;-53
2021/08/18 04:47:21;;;;;;;12.17;10.90;;;;;;;14.68;80.10;101001.41;5917794;29;20249;-54
2021/08/18 04:50:43;;;;;;;12.43;9.43;;;;;;;14.62;79.87;100991.09;5914209;29;20276;-53
2021/08/18 04:54:04;;;;;;;12.83;11.60;;;;;;;14.40;81.69;100989.78;5917087;29;20241;-51
2021/08/18 04:57:25;;;;;;;12.80;11.53;;;;;;;14.35;81.16;100996.00;5916724;29;20238;-53
2021/08/18 05:00:45;;;;;;;13.03;11.70;;;;;;;14.41;80.99;100991.53;5915305;29;20245;-52
2021/08/18 05:04:07;;;;;;;14.43;11.57;;;;;;;14.29;81.40;101004.00;5925674;29;20363;-50
2021/08/18 05:07:30;;;;;;;15.40;11.63;;;;;;;14.26;81.41;100998.81;5915649;29;20241;-52
2021/08/18 05:10:50;;;;;;;12.70;11.20;;;;;;;14.60;79.89;100985.00;5915680;29;20768;-53
2021/08/18 05:14:11;;;;;;;12.40;11.13;;;;;;;14.72;79.18;100983.88;5914125;29;20233;-53
2021/08/18 05:17:33;;;;;;;11.17;9.93;;;;;;;14.27;80.84;100990.06;5916445;29;20250;-53
2021/08/18 05:20:53;;;;;;;12.03;10.60;;;;;;;14.45;79.85;100980.09;5916126;29;20258;-52
2021/08/18 05:24:16;;;;;;;12.30;11.07;;;;;;;14.50;80.03;100984.34;5911396;29;20237;-54
2021/08/18 05:27:37;;;;;;;13.33;11.97;;;;;;;14.65;79.37;100980.50;5913809;29;20238;-50
2021/08/18 05:30:58;;;;;;;12.17;10.40;;;;;;;14.70;79.59;100978.66;5915712;29;20625;-55
2021/08/18 05:34:19;;;;;;;12.00;10.67;;;;;;;14.61;79.62;100978.84;5906668;29;20246;-54
2021/08/18 05:37:40;;;;;;;12.60;10.10;;;;;;;14.82;79.00;100982.75;5915929;29;20306;-52
2021/08/18 05:41:03;;;;;;;13.63;10.67;;;;;;;14.92;79.00;100965.88;5915347;29;20245;-55
2021/08/18 05:44:24;;;;;;;11.43;10.33;;;;;;;14.89;79.05;100978.22;5915865;29;20238;-55
2021/08/18 05:47:44;;;;;;;12.10;10.70;;;;;;;14.81;79.31;100967.03;5915278;29;20241;-52
2021/08/18 05:51:07;;;;;;;12.87;11.40;;;;;;;15.00;78.32;100959.59;5914681;29;20246;-49
2021/08/18 05:54:28;;;;;;;11.53;9.57;;;;;;;15.11;78.17;100958.41;5915892;29;20238;-53
2021/08/18 05:57:51;;;;;;;11.00;10.07;;;;;;;15.19;77.67;100952.97;5914718;29;20233;-54
2021/08/18 06:01:12;;;;;;;9.60;8.73;;;;;;;15.31;76.75;100959.66;5910280;29;20245;-56
2021/08/18 06:04:33;;;;;;;10.87;9.77;;;;;;;15.53;76.45;100955.56;5914742;29;20625;-53
2021/08/18 06:07:54;;;;;;;11.77;8.93;;;;;;;15.40;77.25;100954.16;5909326;29;20712;-52
2021/08/18 06:11:15;;;;;;;10.17;9.27;;;;;;;15.26;76.99;100961.56;5912039;29;20242;-55
2021/08/18 06:14:37;;;;;;;9.37;8.37;;;;;;;15.34;77.22;100965.69;5911072;29;20250;-54
2021/08/18 06:17:59;;;;;;;11.77;9.17;;;;;;;15.33;77.10;100958.72;5913464;29;20521;-52
2021/08/18 06:21:20;;;;;;;12.20;8.37;;;;;;;15.35;76.99;100969.16;5915627;29;20249;-50
2021/08/18 06:24:42;;;;;;;8.43;7.63;;;;;;;15.26;77.09;100972.06;5914877;29;20540;-51
2021/08/18 06:28:03;;;;;;;8.27;7.13;;;;;;;15.05;78.42;100961.19;5915289;29;20241;-50
2021/08/18 06:31:25;;;;;;;7.10;6.20;;;;;;;15.63;76.08;100960.56;5914791;29;20632;-54
2021/08/18 06:34:45;;;;;;;7.47;6.47;;;;;;;15.32;76.93;100979.75;5912555;29;20241;-52
2021/08/18 06:38:06;;;;;;;6.70;6.00;;;;;;;15.55;76.12;100972.13;5912789;29;20266;-51
2021/08/18 06:41:28;;;;;;;7.53;5.83;;;;;;;15.51;77.53;100975.75;5914086;29;20293;-55
2021/08/18 06:44:49;;;;;;;7.67;6.90;;;;;;;15.26;80.04;100972.06;5913514;29;20238;-52
2021/08/18 06:48:11;;;;;;;7.33;6.60;;;;;;;15.37;80.22;100980.47;5912796;29;20225;-53
2021/08/18 06:51:32;;;;;;;5.80;5.30;;;;;;;15.04;80.99;100983.06;5914001;29;20678;-50
2021/08/18 06:54:53;;;;;;;5.50;5.00;;;;;;;15.49;80.10;100979.28;5914876;29;20242;-50
2021/08/18 06:58:14;;;;;;;7.00;5.67;;;;;;;15.11;81.27;100978.53;5915162;29;20245;-48
2021/08/18 07:01:36;;;;;;;5.77;4.87;;;;;;;15.41;81.11;100978.63;5906930;29;20370;-52
2021/08/18 07:04:58;;;;;;;5.97;4.83;;;;;;;15.38;81.00;100981.38;5914356;29;20624;-51
2021/08/18 07:08:19;;;;;;;5.80;4.73;;;;;;;15.21;81.54;100974.78;5914069;29;20249;-52
2021/08/18 07:11:40;;;;;;;5.73;5.23;;;;;;;15.20;81.75;100972.19;5913552;29;20656;-51
2021/08/18 07:15:01;;;;;;;4.50;4.10;;;;;;;15.25;81.49;100968.53;5908936;29;20241;-50
2021/08/18 07:18:23;;;;;;;5.30;4.30;;;;;;;15.12;80.04;100965.41;5912154;29;20241;-54
2021/08/18 07:21:46;;;;;;;5.53;4.77;;;;;;;15.91;78.19;100965.91;5913523;29;20340;-55
2021/08/18 07:25:07;;;;;;;4.53;4.13;;;;;;;15.72;78.03;100973.41;5913887;29;20815;-49
2021/08/18 07:28:28;;;;;;;5.50;4.47;;;;;;;15.72;78.07;100970.78;5909448;29;20609;-54
2021/08/18 07:31:49;;;;;;;6.87;4.77;;;;;;;15.47;78.93;100970.59;5904552;29;20241;-55
2021/08/18 07:35:11;;;;;;;4.63;4.23;;;;;;;15.50;79.51;100947.75;5913599;29;20249;-50
2021/08/18 07:38:33;;;;;;;6.00;4.40;;;;;;;15.67;78.31;100963.06;5912715;29;20278;-55
2021/08/18 07:41:54;;;;;;;4.93;4.43;;;;;;;15.92;77.74;100965.88;5911648;29;20321;-53
2021/08/18 07:45:15;;;;;;;4.60;4.30;;;;;;;15.71;79.17;100972.56;5911729;29;20261;-53
2021/08/18 07:48:36;;;;;;;4.40;4.00;;;;;;;15.53;80.84;100966.06;5903173;29;20481;-49
2021/08/18 07:51:57;;;;;;;4.70;4.00;;;;;;;15.67;80.84;100981.44;5913001;29;20241;-50
2021/08/18 07:55:19;;;;;;;5.80;4.50;;;;;;;15.62;81.27;100980.69;5914008;29;20233;-53
2021/08/18 07:58:40;;;;;;;5.13;3.93;;;;;;;15.76;80.46;100985.63;5909211;29;20238;-51
2021/08/18 08:02:01;;;;;;;7.67;4.60;;;;;;;15.89;79.53;100989.59;5905970;29;20238;-53
2021/08/18 08:05:22;;;;;;;5.17;4.37;;;;;;;16.55;77.75;100976.25;5911767;29;20665;-55
2021/08/18 08:08:43;;;;;;;6.23;3.97;;;;;;;16.50;76.94;100972.94;5915008;29;20246;-51
2021/08/18 08:12:07;;;;;;;3.97;3.30;;;;;;;16.48;75.54;100980.00;5918354;29;20340;-51
2021/08/18 08:15:27;;;;;;;4.97;4.27;;;;;;;16.61;75.70;100970.78;5916198;29;20242;-55
2021/08/18 08:18:48;;;;;;;6.93;4.27;;;;;;;16.43;75.99;100968.75;5914299;29;20245;-53
2021/08/18 08:22:09;;;;;;;4.93;3.93;;;;;;;16.56;74.60;100966.63;5917948;29;20246;-49
2021/08/18 08:25:31;;;;;;;5.40;3.57;;;;;;;16.28;75.32;100965.66;5917590;29;20257;-51
2021/08/18 08:28:53;;;;;;;4.03;3.63;;;;;;;16.69;73.38;100971.44;5916146;29;20238;-51
2021/08/18 08:32:15;;;;;;;6.63;3.77;;;;;;;17.41;71.11;100975.19;5909516;29;20238;-55
2021/08/18 08:35:36;;;;;;;5.67;3.60;;;;;;;17.04;71.58;100972.09;5920277;29;20245;-53
2021/08/18 08:38:57;;;;;;;11.23;3.47;;;;;;;16.78;72.89;100985.19;5914085;29;20250;-54
2021/08/18 08:42:18;;;;;;;5.40;3.83;;;;;;;16.81;71.44;100974.56;5917329;29;20792;-50
2021/08/18 08:45:46;;;;;;;4.63;2.90;;;;;;;16.58;73.53;100991.09;5917856;29;20245;-51
2021/08/18 08:49:07;;;;;;;4.90;3.97;;;;;;;16.21;75.22;101000.09;5915114;29;20249;-52
2021/08/18 08:52:28;;;;;;;4.60;3.13;;;;;;;15.97;77.01;100986.75;5912961;29;20250;-54
2021/08/18 08:55:49;;;;;;;5.03;3.67;;;;;;;16.24;77.12;100995.56;5916444;29;20238;-53
2021/08/18 08:59:10;;;;;;;6.13;3.93;;;;;;;16.28;77.10;101001.59;5915282;29;20230;-54
2021/08/18 09:02:32;;;;;;;4.63;3.90;;;;;;;16.51;76.50;100998.28;5914955;29;20242;-51
2021/08/18 09:05:59;;;;;;;4.97;3.90;;;;;;;16.30;76.93;101000.69;5916174;29;20608;-55
2021/08/18 09:09:22;;;;;;;4.80;4.30;;;;;;;16.70;76.08;100993.31;5912388;29;20234;-51
2021/08/18 09:12:43;;;;;;;5.27;3.90;;;;;;;17.12;74.71;100996.34;5917038;29;20617;-50
2021/08/18 09:16:05;;;;;;;7.43;4.70;;;;;;;17.09;74.43;100993.81;5912893;29;20617;-53
2021/08/18 09:19:31;;;;;;;7.03;4.83;;;;;;;17.63;72.00;100991.13;5910861;29;20930;-53
2021/08/18 09:22:54;;;;;;;5.87;4.57;;;;;;;17.52;71.71;100988.84;5916922;29;20617;-52
2021/08/18 09:26:21;;;;;;;6.30;4.93;;;;;;;17.34;72.55;100984.25;5912940;29;20250;-55
2021/08/18 09:29:44;;;;;;;5.23;4.30;;;;;;;17.24;72.87;100976.66;5914704;29;20943;-53
2021/08/18 09:33:09;;;;;;;6.67;4.47;;;;;;;17.23;72.22;100987.22;5914350;29;20265;-51
2021/08/18 09:36:33;;;;;;;9.70;5.10;;;;;;;16.89;73.20;100980.47;5916478;29;20253;-52
2021/08/18 09:39:54;;;;;;;6.33;4.50;;;;;;;17.45;71.57;101009.28;5915092;29;20325;-53
2021/08/18 09:43:17;;;;;;;5.63;4.70;;;;;;;17.35;71.79;100992.09;5916287;29;20333;-53
2021/08/18 09:46:39;;;;;;;7.03;5.03;;;;;;;17.33;70.62;100988.63;5915088;29;20531;-49
2021/08/18 09:50:00;;;;;;;8.07;4.40;;;;;;;18.21;68.46;100986.38;5915887;29;20548;-50
2021/08/18 09:53:24;;;;;;;6.40;4.20;;;;;;;18.70;66.42;100989.69;5915582;29;20238;-53
2021/08/18 09:56:48;;;;;;;5.53;3.88;;;;;;;18.32;66.94;100985.09;5914640;29;20245;-54
2021/08/18 10:00:09;;;;;;;6.85;4.35;;;;;;;17.79;68.62;100987.00;5912537;29;20713;-51
2021/08/18 10:03:32;;;;;;;8.70;5.23;;;;;;;18.34;66.82;100970.06;5912064;29;20243;-52
2021/08/18 10:06:53;;;;;;;8.53;4.60;;;;;;;18.75;65.48;100968.44;5914426;29;20254;-53
2021/08/18 10:10:16;;;;;;;8.02;5.18;;;;;;;18.41;66.09;100969.75;5908773;29;20230;-53
2021/08/18 10:13:37;;;;;;;6.00;4.50;;;;;;;18.06;66.33;100971.97;5913658;29;20583;-55
2021/08/18 10:16:58;;;;;;;7.63;4.53;;;;;;;18.73;64.69;100979.94;5913799;29;20237;-52
2021/08/18 10:20:23;;;;;;;6.07;4.85;;;;;;;19.36;63.23;100980.84;5909746;29;20242;-52
2021/08/18 10:23:51;;;;;;;5.03;3.97;;;;;;;19.00;64.16;100978.88;5915265;29;20245;-55
2021/08/18 10:30:53;;;;;;;6.75;4.38;;;;;;;18.25;66.93;100968.66;5905905;29;20233;-50
2021/08/18 10:34:33;;;;;;;7.30;4.90;;;;;;;18.15;67.68;100968.16;5908422;29;20356;-52
2021/08/18 10:38:36;;;;;;;4.45;4.05;;;;;;;18.21;66.90;100973.19;5909946;29;20336;-50
2021/08/18 10:41:58;;;;;;;5.75;4.13;;;;;;;18.23;67.20;100981.88;5911787;29;20253;-53
2021/08/18 10:45:40;;;;;;;6.97;4.75;;;;;;;18.71;65.53;100964.22;5914328;29;20602;-52
2021/08/18 10:49:03;;;;;;;5.95;4.05;;;;;;;18.78;64.33;100972.72;5914238;29;20898;-52
2021/08/18 10:52:51;;;;;;;6.03;4.80;;;;;;;18.97;62.93;100968.44;5910051;29;20505;-53
2021/08/18 10:56:44;;;;;;;6.40;4.18;;;;;;;19.98;60.78;100967.59;5893548;29;20241;-51
2021/08/18 11:00:14;;;;;;;6.40;4.72;;;;;;;19.17;61.69;100974.66;5910132;29;20241;-55
2021/08/18 11:03:37;;;;;;;9.77;5.70;;;;;;;18.91;63.43;100976.59;5911861;29;20250;-55
2021/08/18 11:06:58;;;;;;;9.07;4.70;;;;;;;20.18;60.28;100970.19;5914926;29;20250;-55
2021/08/18 11:10:18;;;;;;;7.90;4.93;;;;;;;19.51;62.05;100978.50;5912735;29;20249;-53
2021/08/18 11:13:41;;;;;;;9.00;5.20;;;;;;;19.43;62.07;100977.03;5914416;29;20238;-54
2021/08/18 11:17:06;;;;;;;7.80;4.75;;;;;;;19.23;62.84;100984.94;5914717;29;20250;-50
2021/08/18 11:20:30;;;;;;;9.05;5.47;;;;;;;19.36;61.81;100974.72;5912911;29;20245;-53
2021/08/18 11:23:57;;;;;;;7.13;5.07;;;;;;;19.20;62.72;100956.06;5913405;29;20238;-53
2021/08/18 11:27:19;;;;;;;7.28;5.22;;;;;;;18.92;63.36;100959.88;5909697;29;20237;-54
2021/08/18 11:30:40;;;;;;;6.80;4.80;;;;;;;19.66;61.86;100975.19;5911559;29;20242;-53
2021/08/18 11:34:01;;;;;;;7.20;4.22;;;;;;;19.85;61.18;100968.16;5914489;29;20234;-49
2021/08/18 11:37:23;;;;;;;11.32;5.63;;;;;;;19.53;62.36;100984.56;5913152;29;20241;-53
2021/08/18 11:40:48;;;;;;;7.93;4.43;;;;;;;18.90;62.56;100974.88;5913336;29;20250;-55
2021/08/18 11:44:10;;;;;;;7.15;5.10;;;;;;;18.98;62.70;100964.88;5904478;29;20241;-55
2021/08/18 11:47:33;;;;;;;6.70;5.32;;;;;;;18.95;63.19;100977.34;5918076;29;20253;-50
2021/08/18 11:50:57;;;;;;;8.20;4.38;;;;;;;19.39;61.83;100980.72;5917131;29;20238;-54
2021/08/18 11:54:23;;;;;;;7.10;4.40;;;;;;;19.33;61.48;100982.75;5912487;29;20275;-53
2021/08/18 11:57:44;;;;;;;5.35;4.00;;;;;;;20.44;59.60;100973.38;5918714;29;20776;-52
2021/08/18 12:01:08;;;;;;;4.72;4.07;;;;;;;21.96;54.91;100959.50;5915896;29;20732;-55
2021/08/18 12:04:30;;;;;;;4.78;4.05;;;;;;;23.49;50.86;100964.94;5917272;29;20238;-53
2021/08/18 12:08:06;;;;;;;5.13;4.00;;;;;;;23.43;49.95;100957.34;5918709;29;20233;-54
2021/08/18 12:11:36;;;;;;;5.57;3.85;;;;;;;22.83;51.24;100956.41;5916592;29;20822;-55
2021/08/18 12:15:10;;;;;;;7.30;4.35;;;;;;;20.74;57.97;100943.72;5916349;29;20821;-55
2021/08/18 12:18:32;;;;;;;5.63;4.70;;;;;;;19.91;61.20;100955.56;5913250;29;20245;-54
2021/08/18 12:22:14;;;;;;;5.32;3.88;;;;;;;19.52;62.06;100953.78;5916311;29;20336;-53
2021/08/18 12:25:36;;;;;;;6.75;4.03;;;;;;;19.84;60.54;100949.72;5913943;29;20242;-56
2021/08/18 12:29:00;;;;;;;4.95;4.45;;;;;;;19.47;62.03;100954.00;5914078;29;20329;-52
2021/08/18 12:32:23;;;;;;;3.67;3.35;;;;;;;19.48;60.80;100953.94;5916771;29;20233;-51
2021/08/18 12:35:44;;;;;;;7.63;4.03;;;;;;;20.42;57.99;100941.72;5908984;29;20238;-50
2021/08/18 12:39:06;;;;;;;3.80;2.85;;;;;;;19.97;58.98;100952.69;5917039;29;20340;-53
2021/08/18 12:42:29;;;;;;;6.07;4.35;;;;;;;20.10;59.32;100945.03;5917589;29;20751;-51
2021/08/18 12:45:51;;;;;;;5.45;3.78;;;;;;;21.00;56.38;100940.66;5915625;29;20246;-52
2021/08/18 12:49:29;;;;;;;4.15;3.78;;;;;;;20.22;58.18;100940.03;5907604;29;20250;-53
2021/08/18 12:52:50;;;;;;;4.20;3.13;;;;;;;20.15;58.84;100958.91;5915073;29;20528;-54
2021/08/18 12:56:11;;;;;;;4.43;3.88;;;;;;;19.69;61.00;100945.97;5911525;29;20261;-52
2021/08/18 12:59:37;;;;;;;4.05;3.20;;;;;;;18.83;64.96;100947.03;5914754;29;20245;-56
2021/08/18 13:02:59;;;;;;;5.78;3.90;;;;;;;18.40;66.83;100968.06;5915769;29;20246;-52
2021/08/18 13:06:20;;;;;;;8.75;3.95;;;;;;;18.64;66.00;100960.94;5916378;29;20234;-51
2021/08/18 13:09:41;;;;;;;5.45;3.33;;;;;;;19.05;64.46;100963.69;5914494;29;20534;-52
2021/08/18 13:13:03;;;;;;;5.75;3.92;;;;;;;19.44;63.77;100962.91;5916457;29;20325;-51
2021/08/18 13:16:24;;;;;;;8.38;4.10;;;;;;;19.46;63.51;100961.06;5915653;29;20234;-54
2021/08/18 13:19:46;;;;;;;5.43;3.28;;;;;;;20.31;60.29;100940.50;5912948;29;20234;-53
2021/08/18 13:23:07;;;;;;;3.92;3.58;;;;;;;19.56;62.68;100961.50;5911614;29;20241;-48
2021/08/18 13:26:28;;;;;;;5.22;3.58;;;;;;;19.68;63.09;100960.09;5911833;29;20253;-53
2021/08/18 13:29:49;;;;;;;8.45;3.47;;;;;;;19.10;65.21;100952.94;5915696;29;20245;-51
2021/08/18 13:33:10;;;;;;;12.40;4.43;;;;;;;19.00;65.91;100948.94;5915955;29;20357;-51
2021/08/18 13:36:33;;;;;;;3.95;3.50;;;;;;;19.28;65.70;100956.56;5916711;29;20242;-50
2021/08/18 13:39:54;;;;;;;5.25;4.00;;;;;;;18.91;66.33;100952.00;5915932;29;20237;-53
2021/08/18 13:43:15;;;;;;;5.18;3.88;;;;;;;19.38;64.56;100959.66;5915827;29;20241;-53
2021/08/18 13:46:37;;;;;;;3.85;3.20;;;;;;;19.84;63.33;100952.38;5913260;29;20238;-53
2021/08/18 13:49:57;;;;;;;5.13;3.35;;;;;;;19.50;64.55;100951.19;5913315;29;20238;-50
2021/08/18 13:53:19;;;;;;;6.03;3.08;;;;;;;19.38;64.68;100957.88;5911136;29;20617;-54
2021/08/18 13:56:41;;;;;;;3.50;3.30;;;;;;;19.30;65.33;100946.78;5905904;29;20514;-54
2021/08/18 14:00:01;;;;;;;3.05;2.85;;;;;;;19.70;64.05;100942.41;5912630;29;20236;-49
2021/08/18 14:03:28;;;;;;;5.22;3.50;;;;;;;19.91;62.67;100940.59;5912963;29;20246;-53
2021/08/18 14:06:49;;;;;;;4.32;3.97;;;;;;;19.83;63.62;100937.44;5912225;29;20233;-53
2021/08/18 14:10:12;;;;;;;4.97;3.70;;;;;;;19.85;63.24;100936.47;5909979;29;20245;-53
2021/08/18 14:13:34;;;;;;;3.92;2.67;;;;;;;20.21;61.43;100930.38;5913985;29;20249;-54
2021/08/18 14:16:55;;;;;;;2.65;2.22;;;;;;;20.12;61.02;100928.16;5915617;29;20237;-53
2021/08/18 14:20:16;;;;;;;8.50;3.45;;;;;;;19.49;63.47;100944.22;5910100;29;20424;-53
2021/08/18 14:23:38;;;;;;;3.42;2.97;;;;;;;19.78;62.61;100942.94;5911000;29;20246;-51
2021/08/18 14:27:00;;;;;;;7.68;3.95;;;;;;;19.38;64.31;100951.75;5909523;29;20238;-52
2021/08/18 14:30:21;;;;;;;4.10;3.08;;;;;;;19.53;63.98;100929.09;5915060;29;20241;-55
2021/08/18 14:33:42;;;;;;;4.40;3.20;;;;;;;19.30;64.62;100945.94;5913723;29;20957;-55
2021/08/18 14:37:04;;;;;;;6.45;3.10;;;;;;;19.16;65.59;100946.53;5909731;29;20262;-51
2021/08/18 14:40:25;;;;;;;5.07;3.78;;;;;;;19.22;65.66;100939.22;5910760;29;20246;-51
2021/08/18 14:43:47;;;;;;;3.47;3.17;;;;;;;18.78;67.38;100939.25;5912690;29;20261;-52
2021/08/18 14:47:08;;;;;;;5.35;3.67;;;;;;;18.94;67.52;100941.31;5913342;29;20238;-51
2021/08/18 14:50:30;;;;;;;4.25;3.85;;;;;;;18.50;69.40;100940.41;5910829;29;20547;-53
2021/08/18 14:53:51;;;;;;;5.47;3.88;;;;;;;18.88;68.72;100943.28;5918586;29;20234;-49
2021/08/18 14:57:12;;;;;;;5.28;4.10;;;;;;;18.85;68.50;100932.00;5906896;29;20237;-50
2021/08/18 15:00:34;;;;;;;4.38;3.72;;;;;;;19.01;68.38;100943.63;5912295;29;20696;-50
2021/08/18 15:03:57;;;;;;;4.90;3.75;;;;;;;18.82;68.80;100942.69;5915284;29;20234;-56
2021/08/18 15:07:17;;;;;;;5.40;4.60;;;;;;;18.93;68.95;100940.44;5910271;29;20621;-54
2021/08/18 15:10:39;;;;;;;6.78;4.93;;;;;;;18.47;70.65;100944.94;5911827;29;20584;-54
2021/08/18 15:14:01;;;;;;;6.82;5.00;;;;;;;18.26;72.19;100952.78;5915335;29;20245;-54
2021/08/18 15:17:23;;;;;;;6.70;5.03;;;;;;;18.34;73.79;100943.69;5910177;29;20234;-52
2021/08/18 15:20:44;;;;;;;5.10;4.60;;;;;;;18.15;75.23;100947.06;5911507;29;20292;-55
2021/08/18 15:24:06;;;;;;;5.07;4.63;;;;;;;18.55;73.88;100940.19;5907165;29;20242;-54
2021/08/18 15:27:27;;;;;;;5.93;5.32;;;;;;;18.41;73.74;100932.84;5910956;29;20617;-54
2021/08/18 15:30:48;;;;;;;4.82;4.43;;;;;;;18.74;72.00;100932.41;5912520;29;20608;-52
2021/08/18 15:34:13;;;;;;;7.75;6.93;;;;;;;19.00;71.36;100941.91;5914076;29;20238;-54
2021/08/18 15:37:35;;;;;;;5.35;4.82;;;;;;;18.91;71.42;100931.75;5914109;29;20230;-51